LFST/SXB METAR and TAF weather

Enter ICAO airport designator
Station Type Date Time Source
LFST METAR 2022/01/19 19:30 UTC NOAA

LFST 191930Z AUTO 20008KT 9999 -RA BKN029 BKN036 OVC042 03/01 Q1026 NOSIG


Station Type Date Time Source
LFST Decoded METAR 2022/01/19 19:30 UTC NOAA

Strasbourg, France (LFST) 48-33N 007-38E 154M
Jan 19, 2022 - 02:30 PM EST / 2022.01.19 1930 UTC
Wind: from the SSW (200 degrees) at 9 MPH (8 KT):0
Visibility: greater than 7 mile(s):0
Sky conditions: overcast
Weather: light rain
Temperature: 37 F (3 C)
Dew Point: 33 F (1 C)
Relative Humidity: 86%
Pressure (altimeter): 30.30 in. Hg (1026 hPa)
ob: LFST 191930Z AUTO 20008KT 9999 -RA BKN029 BKN036 OVC042 03/01 Q1026 NOSIG
cycle: 19

Station Type Date Time Source
LFST TAF 2022/01/19 18:21 UTC NOAA

TAF LFST 191700Z 1918/2018 19006KT 9999 BKN030 PROB40
TEMPO 1922/2003 4500 -RASN OVC012
BECMG 2012/2015 30010KT

Example: see airport list